• Join FlightAware (Why Join?)
  • Login
  • US Flag 
10:29PM EDT


 

Airport Tracker/Info


-or-


 

Live Flight TrackerFlight Track Log ✈ MTN7305 ✈ 22-Jul-2013 ✈ KBWI - KEWR

Flight Track Log - Related Links

Times and Time Zones

All times are in EDT time to prevent confusion due to time zone crossing. See the MTN7305 flight status page for this flight to view local times or setup timezone preferences in your user account.

Time Position Orientation Groundspeed Altitude Reporting Facility
EDT Latitude Longitude Course Direction KTS MPH feet Rate Location/Type
10:52PM 39.2000 -76.6833 339° North 97 112 800  Level Potomac TRACON
10:53PM 39.2333 -76.7000 339° North 125 144 1,500 720 Climbing Potomac TRACON
10:54PM 39.2667 -76.7167 339° North 128 147 2,200 780 Climbing Potomac TRACON
10:55PM 39.3000 -76.7167 360° North 127 146 3,100 780 Climbing Potomac TRACON
10:56PM 39.3333 -76.7167 360° North 125 144 3,900 660 Climbing Potomac TRACON
10:57PM 39.3833 -76.7167 360° North 131 151 4,600 540 Climbing Potomac TRACON
10:58PM 39.4167 -76.7167 360° North 149 171 5,000 180 Climbing Potomac TRACON
10:59PM 39.4500 -76.6833 38° Northeast 181 208 5,000  Level Potomac TRACON
11:00PM 39.5000 -76.6500 27° Northeast 186 214 5,000  Level Potomac TRACON
11:01PM 39.5167 -76.5833 72° East 185 213 5,000  Level Potomac TRACON
11:02PM 39.5500 -76.5333 49° Northeast 185 213 5,000 -60 Level Potomac TRACON
11:03PM 39.5667 -76.4667 72° East 185 213 4,900 -60 Descending Potomac TRACON
11:04PM 39.5667 -76.4000 90° East 178 205 4,900  Level Potomac TRACON
11:05PM 39.5667 -76.3500 90° East 173 199 5,000  Climbing Potomac TRACON
11:07PM 39.5667 -76.2500 90° East 168 193 5,000  Level Philadelphia TRACON
11:08PM 39.5667 -76.1833 90° East 174 200 5,000  Level Philadelphia TRACON
11:09PM 39.5667 -76.1167 90° East 170 196 5,000  Level Philadelphia TRACON
11:10PM 39.5667 -76.0500 90° East 169 194 5,000  Level Philadelphia TRACON
11:11PM 39.5833 -75.9833 72° East 174 200 5,000  Level Philadelphia TRACON
11:12PM 39.6167 -75.9333 49° Northeast 181 208 5,000  Level Philadelphia TRACON
11:13PM 39.6500 -75.8833 49° Northeast 175 201 5,000  Level Philadelphia TRACON
11:14PM 39.6667 -75.8500 57° Northeast 175 201 5,000  Level Philadelphia TRACON
11:15PM 39.7000 -75.7833 57° Northeast 172 198 5,000  Level Philadelphia TRACON
11:16PM 39.7333 -75.7500 38° Northeast 170 196 5,000  Level Philadelphia TRACON
11:17PM 39.7667 -75.7000 49° Northeast 182 209 5,000  Level Philadelphia TRACON
11:18PM 39.8167 -75.7167 346° North 175 201 5,000  Level Philadelphia TRACON
11:19PM 39.8500 -75.6833 38° Northeast 170 196 5,000  Level Philadelphia TRACON
11:20PM 39.8833 -75.6167 57° Northeast 170 196 5,000  Level Philadelphia TRACON
11:21PM 39.9167 -75.5500 57° Northeast 168 193 5,000  Level Philadelphia TRACON
11:22PM 39.9333 -75.5000 66° East 171 197 5,000  Level Philadelphia TRACON
11:23PM 39.9667 -75.4500 49° Northeast 170 196 5,000  Level Philadelphia TRACON
11:24PM 39.9833 -75.4000 66° East 165 190 5,000  Level Philadelphia TRACON
11:25PM 40.0167 -75.3500 49° Northeast 165 190 5,000  Level Philadelphia TRACON
11:26PM 40.0500 -75.3000 49° Northeast 167 192 5,000  Level Philadelphia TRACON
11:27PM 40.0667 -75.2667 57° Northeast 171 197 5,000  Level Philadelphia TRACON
11:28PM 40.1000 -75.2167 49° Northeast 169 194 5,000  Level Philadelphia TRACON
11:29PM 40.1167 -75.1833 57° Northeast 170 196 5,000  Level Philadelphia TRACON
11:30PM 40.1333 -75.1333 66° East 167 192 5,000  Level Philadelphia TRACON
11:31PM 40.1667 -75.0667 57° Northeast 163 188 5,000  Level New York TRACON
11:32PM 40.2000 -75.0167 49° Northeast 162 186 5,000  Level New York TRACON
11:33PM 40.2167 -74.9667 66° East 163 188 5,000  Level New York TRACON
11:34PM 40.2500 -74.9167 49° Northeast 162 186 5,000  Level New York TRACON
11:35PM 40.2667 -74.8833 57° Northeast 165 190 5,000  Level New York TRACON
11:36PM 40.3000 -74.8333 49° Northeast 164 189 5,000  Level New York TRACON
11:37PM 40.3333 -74.8000 37° Northeast 167 192 5,000  Level New York TRACON
11:38PM 40.3667 -74.7500 49° Northeast 171 197 5,000  Level New York TRACON
11:39PM 40.4000 -74.7000 49° Northeast 170 196 5,000  Level New York TRACON
11:40PM 40.4333 -74.6667 37° Northeast 170 196 5,000  Level New York TRACON
11:41PM 40.4833 -74.6500 14° North 172 198 5,000  Level New York TRACON
11:42PM 40.5333 -74.6333 14° North 168 193 5,000  Level New York TRACON
11:43PM 40.5667 -74.6333 360° North 171 197 5,000  Level New York TRACON
11:44PM 40.6167 -74.6167 14° North 169 194 5,000  Level New York TRACON
11:45PM 40.6667 -74.6167 360° North 167 192 5,000  Level New York TRACON
11:46PM 40.7167 -74.6000 14° North 169 194 5,000 -120 Level New York TRACON
11:47PM 40.7667 -74.6000 360° North 173 199 4,800 -240 Descending New York TRACON
11:48PM 40.8000 -74.5833 21° North 183 211 4,600 -360 Descending New York TRACON
11:49PM 40.8333 -74.5500 37° Northeast 181 208 4,200 -480 Descending New York TRACON
11:50PM 40.8833 -74.4833 45° Northeast 181 208 3,700 -420 Descending New York TRACON
11:51PM 40.9000 -74.4333 66° East 181 208 3,400 -420 Descending New York TRACON
11:52PM 40.9167 -74.3833 66° East 174 200 3,000 -240 Descending New York TRACON
11:53PM 40.9333 -74.3333 66° East 166 191 3,000  Level New York TRACON
11:54PM 40.9500 -74.2667 72° East 162 186 3,000  Level New York TRACON
11:55PM 40.9500 -74.2167 90° East 156 180 3,000  Level New York TRACON
11:56PM 40.9500 -74.1500 90° East 155 178 3,000  Level New York TRACON
11:57PM 40.9333 -74.1167 123° Southeast 146 168 3,000  Level New York TRACON
11:58PM 40.9000 -74.1000 159° South 143 165 3,000  Level New York TRACON
11:59PM 40.8500 -74.1000 180° South 144 166 3,000 -240 Level New York TRACON
12:00AM 40.8167 -74.1000 180° South 154 177 2,600 -600 Descending New York TRACON
12:01AM 40.7667 -74.1167 194° South 167 192 1,900 -900 Descending New York TRACON
12:02AM 40.7333 -74.1333 201° Southwest 166 191 800 -1,140 Descending New York TRACON